sensor_id;sensor_type;location;lat;lon;timestamp;P1;durP1;ratioP1;P2;durP2;ratioP2
1380;SDS011;684;48.342;10.096;2023-02-10T00:01:36;72.83;;;38.40;;
1380;SDS011;684;48.342;10.096;2023-02-10T00:04:03;65.70;;;35.10;;
1380;SDS011;684;48.342;10.096;2023-02-10T00:06:30;59.80;;;34.63;;
1380;SDS011;684;48.342;10.096;2023-02-10T00:08:58;71.90;;;38.10;;
1380;SDS011;684;48.342;10.096;2023-02-10T00:11:27;68.67;;;35.80;;
1380;SDS011;684;48.342;10.096;2023-02-10T00:14:12;64.83;;;34.63;;
1380;SDS011;684;48.342;10.096;2023-02-10T00:16:41;74.83;;;37.57;;
1380;SDS011;684;48.342;10.096;2023-02-10T00:19:07;61.97;;;35.37;;
1380;SDS011;684;48.342;10.096;2023-02-10T00:21:34;74.27;;;38.87;;
1380;SDS011;684;48.342;10.096;2023-02-10T00:24:02;61.30;;;36.40;;
1380;SDS011;684;48.342;10.096;2023-02-10T00:26:29;68.13;;;35.80;;
1380;SDS011;684;48.342;10.096;2023-02-10T00:28:55;65.07;;;35.53;;
1380;SDS011;684;48.342;10.096;2023-02-10T00:31:22;66.13;;;35.07;;
1380;SDS011;684;48.342;10.096;2023-02-10T00:33:50;63.03;;;34.70;;
1380;SDS011;684;48.342;10.096;2023-02-10T00:36:17;62.07;;;34.63;;
1380;SDS011;684;48.342;10.096;2023-02-10T00:38:44;66.83;;;35.20;;
1380;SDS011;684;48.342;10.096;2023-02-10T00:41:11;78.80;;;37.47;;
1380;SDS011;684;48.342;10.096;2023-02-10T00:43:39;58.03;;;35.00;;
1380;SDS011;684;48.342;10.096;2023-02-10T00:46:07;60.90;;;35.90;;
1380;SDS011;684;48.342;10.096;2023-02-10T00:48:34;61.73;;;35.40;;
1380;SDS011;684;48.342;10.096;2023-02-10T00:51:03;63.30;;;37.03;;
1380;SDS011;684;48.342;10.096;2023-02-10T00:53:30;61.10;;;36.13;;
1380;SDS011;684;48.342;10.096;2023-02-10T00:55:57;65.57;;;35.87;;
1380;SDS011;684;48.342;10.096;2023-02-10T00:58:24;73.80;;;36.03;;
1380;SDS011;684;48.342;10.096;2023-02-10T01:00:52;69.37;;;35.20;;
1380;SDS011;684;48.342;10.096;2023-02-10T01:03:19;67.70;;;35.70;;
1380;SDS011;684;48.342;10.096;2023-02-10T01:05:47;62.30;;;34.23;;
1380;SDS011;684;48.342;10.096;2023-02-10T01:08:15;61.60;;;34.37;;
1380;SDS011;684;48.342;10.096;2023-02-10T01:10:42;57.73;;;33.10;;
1380;SDS011;684;48.342;10.096;2023-02-10T01:13:10;59.90;;;33.90;;
1380;SDS011;684;48.342;10.096;2023-02-10T01:15:40;58.90;;;32.87;;
1380;SDS011;684;48.342;10.096;2023-02-10T01:18:08;57.40;;;29.87;;
1380;SDS011;684;48.342;10.096;2023-02-10T01:20:37;67.30;;;35.07;;
1380;SDS011;684;48.342;10.096;2023-02-10T01:23:04;61.10;;;33.50;;
1380;SDS011;684;48.342;10.096;2023-02-10T01:25:33;66.00;;;36.27;;
1380;SDS011;684;48.342;10.096;2023-02-10T01:28:00;56.20;;;33.60;;
1380;SDS011;684;48.342;10.096;2023-02-10T01:30:27;66.47;;;33.10;;
1380;SDS011;684;48.342;10.096;2023-02-10T01:32:54;59.07;;;32.33;;
1380;SDS011;684;48.342;10.096;2023-02-10T01:35:21;54.60;;;31.30;;
1380;SDS011;684;48.342;10.096;2023-02-10T01:37:48;57.50;;;31.77;;
1380;SDS011;684;48.342;10.096;2023-02-10T01:40:15;64.10;;;34.30;;
1380;SDS011;684;48.342;10.096;2023-02-10T01:42:43;58.50;;;32.63;;
1380;SDS011;684;48.342;10.096;2023-02-10T01:45:15;54.47;;;31.77;;
1380;SDS011;684;48.342;10.096;2023-02-10T01:47:48;56.50;;;32.70;;
1380;SDS011;684;48.342;10.096;2023-02-10T01:50:18;56.10;;;32.50;;
1380;SDS011;684;48.342;10.096;2023-02-10T01:52:47;57.73;;;31.87;;
1380;SDS011;684;48.342;10.096;2023-02-10T01:55:17;52.00;;;30.67;;
1380;SDS011;684;48.342;10.096;2023-02-10T01:57:48;60.60;;;30.03;;
1380;SDS011;684;48.342;10.096;2023-02-10T02:00:19;53.10;;;29.13;;
1380;SDS011;684;48.342;10.096;2023-02-10T02:02:47;56.17;;;30.63;;
1380;SDS011;684;48.342;10.096;2023-02-10T02:05:19;61.30;;;32.73;;
1380;SDS011;684;48.342;10.096;2023-02-10T02:07:52;55.33;;;30.60;;
1380;SDS011;684;48.342;10.096;2023-02-10T02:10:19;56.53;;;29.60;;
1380;SDS011;684;48.342;10.096;2023-02-10T02:12:52;63.10;;;32.27;;
1380;SDS011;684;48.342;10.096;2023-02-10T02:15:23;52.20;;;28.47;;
1380;SDS011;684;48.342;10.096;2023-02-10T02:18:02;54.23;;;29.40;;
1380;SDS011;684;48.342;10.096;2023-02-10T02:23:39;49.67;;;27.93;;
1380;SDS011;684;48.342;10.096;2023-02-10T02:26:33;54.67;;;31.57;;
1380;SDS011;684;48.342;10.096;2023-02-10T02:29:22;55.20;;;29.77;;
1380;SDS011;684;48.342;10.096;2023-02-10T02:32:11;54.13;;;29.73;;
1380;SDS011;684;48.342;10.096;2023-02-10T02:34:42;53.33;;;27.40;;
1380;SDS011;684;48.342;10.096;2023-02-10T02:37:16;64.07;;;32.73;;
1380;SDS011;684;48.342;10.096;2023-02-10T02:39:47;54.33;;;28.63;;
1380;SDS011;684;48.342;10.096;2023-02-10T02:42:16;54.90;;;29.37;;
1380;SDS011;684;48.342;10.096;2023-02-10T02:44:45;50.47;;;29.20;;
1380;SDS011;684;48.342;10.096;2023-02-10T02:47:16;55.00;;;30.80;;
1380;SDS011;684;48.342;10.096;2023-02-10T02:49:55;54.20;;;30.07;;
1380;SDS011;684;48.342;10.096;2023-02-10T02:52:31;52.37;;;31.07;;
1380;SDS011;684;48.342;10.096;2023-02-10T02:55:07;52.10;;;30.23;;
1380;SDS011;684;48.342;10.096;2023-02-10T02:57:41;54.10;;;30.50;;
1380;SDS011;684;48.342;10.096;2023-02-10T03:00:12;58.97;;;31.20;;
1380;SDS011;684;48.342;10.096;2023-02-10T03:02:43;55.50;;;30.63;;
1380;SDS011;684;48.342;10.096;2023-02-10T03:05:16;54.77;;;30.50;;
1380;SDS011;684;48.342;10.096;2023-02-10T03:07:44;48.07;;;28.87;;
1380;SDS011;684;48.342;10.096;2023-02-10T03:10:10;53.30;;;30.50;;
1380;SDS011;684;48.342;10.096;2023-02-10T03:12:37;50.40;;;31.47;;
1380;SDS011;684;48.342;10.096;2023-02-10T03:15:04;50.03;;;28.50;;
1380;SDS011;684;48.342;10.096;2023-02-10T03:17:31;53.10;;;29.70;;
1380;SDS011;684;48.342;10.096;2023-02-10T03:19:59;55.17;;;29.53;;
1380;SDS011;684;48.342;10.096;2023-02-10T03:22:26;56.73;;;31.23;;
1380;SDS011;684;48.342;10.096;2023-02-10T03:24:52;56.50;;;31.40;;
1380;SDS011;684;48.342;10.096;2023-02-10T03:27:19;51.30;;;30.90;;
1380;SDS011;684;48.342;10.096;2023-02-10T03:29:46;60.03;;;31.80;;
1380;SDS011;684;48.342;10.096;2023-02-10T03:32:14;57.70;;;31.67;;
1380;SDS011;684;48.342;10.096;2023-02-10T03:34:41;51.93;;;30.10;;
1380;SDS011;684;48.342;10.096;2023-02-10T03:37:09;49.30;;;28.00;;
1380;SDS011;684;48.342;10.096;2023-02-10T03:39:36;59.53;;;29.57;;
1380;SDS011;684;48.342;10.096;2023-02-10T03:42:03;57.27;;;28.83;;
1380;SDS011;684;48.342;10.096;2023-02-10T03:44:30;51.73;;;28.33;;
1380;SDS011;684;48.342;10.096;2023-02-10T03:46:57;63.30;;;29.07;;
1380;SDS011;684;48.342;10.096;2023-02-10T03:49:23;50.10;;;30.30;;
1380;SDS011;684;48.342;10.096;2023-02-10T03:51:50;54.37;;;30.30;;
1380;SDS011;684;48.342;10.096;2023-02-10T03:54:18;53.13;;;28.43;;
1380;SDS011;684;48.342;10.096;2023-02-10T03:56:45;58.70;;;32.37;;
1380;SDS011;684;48.342;10.096;2023-02-10T03:59:12;54.97;;;30.27;;
1380;SDS011;684;48.342;10.096;2023-02-10T04:01:38;48.83;;;29.47;;
1380;SDS011;684;48.342;10.096;2023-02-10T04:04:05;54.93;;;32.70;;
1380;SDS011;684;48.342;10.096;2023-02-10T04:06:32;59.43;;;32.00;;
1380;SDS011;684;48.342;10.096;2023-02-10T04:08:58;56.40;;;31.70;;
1380;SDS011;684;48.342;10.096;2023-02-10T04:11:27;56.43;;;29.70;;
1380;SDS011;684;48.342;10.096;2023-02-10T04:13:53;52.13;;;28.80;;
1380;SDS011;684;48.342;10.096;2023-02-10T04:16:20;59.20;;;31.60;;
1380;SDS011;684;48.342;10.096;2023-02-10T04:18:52;66.20;;;33.80;;
1380;SDS011;684;48.342;10.096;2023-02-10T04:21:19;60.47;;;33.43;;
1380;SDS011;684;48.342;10.096;2023-02-10T04:23:46;55.97;;;32.57;;
1380;SDS011;684;48.342;10.096;2023-02-10T04:26:13;61.17;;;33.30;;
1380;SDS011;684;48.342;10.096;2023-02-10T04:28:41;56.80;;;30.77;;
1380;SDS011;684;48.342;10.096;2023-02-10T04:31:07;63.60;;;33.37;;
1380;SDS011;684;48.342;10.096;2023-02-10T04:33:34;52.63;;;30.80;;
1380;SDS011;684;48.342;10.096;2023-02-10T04:36:02;62.40;;;31.53;;
1380;SDS011;684;48.342;10.096;2023-02-10T04:38:29;62.80;;;31.57;;
1380;SDS011;684;48.342;10.096;2023-02-10T04:40:56;57.37;;;29.47;;
1380;SDS011;684;48.342;10.096;2023-02-10T04:43:23;54.83;;;30.70;;
1380;SDS011;684;48.342;10.096;2023-02-10T04:45:51;53.37;;;30.00;;
1380;SDS011;684;48.342;10.096;2023-02-10T04:48:18;58.60;;;30.10;;
1380;SDS011;684;48.342;10.096;2023-02-10T04:50:46;55.23;;;27.80;;
1380;SDS011;684;48.342;10.096;2023-02-10T04:53:13;59.90;;;31.03;;
1380;SDS011;684;48.342;10.096;2023-02-10T04:55:39;65.13;;;31.93;;
1380;SDS011;684;48.342;10.096;2023-02-10T04:58:06;54.97;;;31.07;;
1380;SDS011;684;48.342;10.096;2023-02-10T05:00:33;54.00;;;30.67;;
1380;SDS011;684;48.342;10.096;2023-02-10T05:03:01;49.20;;;29.53;;
1380;SDS011;684;48.342;10.096;2023-02-10T05:05:28;59.80;;;31.10;;
1380;SDS011;684;48.342;10.096;2023-02-10T05:07:55;62.93;;;32.63;;
1380;SDS011;684;48.342;10.096;2023-02-10T05:10:22;57.63;;;31.90;;
1380;SDS011;684;48.342;10.096;2023-02-10T05:12:48;53.10;;;29.93;;
1380;SDS011;684;48.342;10.096;2023-02-10T05:15:15;56.43;;;29.73;;
1380;SDS011;684;48.342;10.096;2023-02-10T05:17:42;55.90;;;29.73;;
1380;SDS011;684;48.342;10.096;2023-02-10T05:20:10;56.83;;;31.67;;
1380;SDS011;684;48.342;10.096;2023-02-10T05:22:37;54.93;;;29.87;;
1380;SDS011;684;48.342;10.096;2023-02-10T05:25:05;55.23;;;30.30;;
1380;SDS011;684;48.342;10.096;2023-02-10T05:27:32;58.27;;;32.47;;
1380;SDS011;684;48.342;10.096;2023-02-10T05:29:59;52.43;;;30.57;;
1380;SDS011;684;48.342;10.096;2023-02-10T05:32:25;53.63;;;31.73;;
1380;SDS011;684;48.342;10.096;2023-02-10T05:34:52;63.90;;;32.33;;
1380;SDS011;684;48.342;10.096;2023-02-10T05:37:20;56.07;;;30.33;;
1380;SDS011;684;48.342;10.096;2023-02-10T05:39:47;55.43;;;31.40;;
1380;SDS011;684;48.342;10.096;2023-02-10T05:42:14;51.40;;;30.60;;
1380;SDS011;684;48.342;10.096;2023-02-10T05:44:40;52.07;;;29.37;;
1380;SDS011;684;48.342;10.096;2023-02-10T05:47:08;52.13;;;28.30;;
1380;SDS011;684;48.342;10.096;2023-02-10T05:49:34;46.30;;;29.80;;
1380;SDS011;684;48.342;10.096;2023-02-10T05:52:01;53.97;;;30.97;;
1380;SDS011;684;48.342;10.096;2023-02-10T05:54:29;54.90;;;28.93;;
1380;SDS011;684;48.342;10.096;2023-02-10T05:56:56;59.63;;;30.70;;
1380;SDS011;684;48.342;10.096;2023-02-10T05:59:23;61.77;;;31.43;;
1380;SDS011;684;48.342;10.096;2023-02-10T06:01:50;52.03;;;29.33;;
1380;SDS011;684;48.342;10.096;2023-02-10T06:04:17;51.80;;;30.13;;
1380;SDS011;684;48.342;10.096;2023-02-10T06:06:44;55.93;;;29.43;;
1380;SDS011;684;48.342;10.096;2023-02-10T06:09:10;55.27;;;28.53;;
1380;SDS011;684;48.342;10.096;2023-02-10T06:11:38;59.00;;;33.27;;
1380;SDS011;684;48.342;10.096;2023-02-10T06:14:05;56.47;;;30.20;;
1380;SDS011;684;48.342;10.096;2023-02-10T06:16:32;61.30;;;32.30;;
1380;SDS011;684;48.342;10.096;2023-02-10T06:18:58;62.63;;;30.20;;
1380;SDS011;684;48.342;10.096;2023-02-10T06:21:25;52.07;;;30.77;;
1380;SDS011;684;48.342;10.096;2023-02-10T06:23:52;56.80;;;31.03;;
1380;SDS011;684;48.342;10.096;2023-02-10T06:26:19;61.93;;;31.00;;
1380;SDS011;684;48.342;10.096;2023-02-10T06:28:47;59.83;;;31.77;;
1380;SDS011;684;48.342;10.096;2023-02-10T06:31:14;57.80;;;31.27;;
1380;SDS011;684;48.342;10.096;2023-02-10T06:33:40;62.50;;;34.20;;
1380;SDS011;684;48.342;10.096;2023-02-10T06:36:08;63.63;;;31.70;;
1380;SDS011;684;48.342;10.096;2023-02-10T06:38:36;62.43;;;31.70;;
1380;SDS011;684;48.342;10.096;2023-02-10T06:41:03;58.93;;;31.70;;
1380;SDS011;684;48.342;10.096;2023-02-10T06:43:30;61.37;;;31.53;;
1380;SDS011;684;48.342;10.096;2023-02-10T06:45:58;58.73;;;34.13;;
1380;SDS011;684;48.342;10.096;2023-02-10T06:48:27;56.50;;;30.73;;
1380;SDS011;684;48.342;10.096;2023-02-10T06:50:54;58.63;;;31.10;;
1380;SDS011;684;48.342;10.096;2023-02-10T06:53:20;57.57;;;31.57;;
1380;SDS011;684;48.342;10.096;2023-02-10T06:55:48;53.97;;;29.67;;
1380;SDS011;684;48.342;10.096;2023-02-10T06:58:15;52.27;;;30.97;;
1380;SDS011;684;48.342;10.096;2023-02-10T07:00:42;48.63;;;28.00;;
1380;SDS011;684;48.342;10.096;2023-02-10T07:03:10;58.83;;;29.80;;
1380;SDS011;684;48.342;10.096;2023-02-10T07:05:38;50.53;;;29.20;;
1380;SDS011;684;48.342;10.096;2023-02-10T07:08:05;48.33;;;28.90;;
1380;SDS011;684;48.342;10.096;2023-02-10T07:10:32;49.23;;;27.37;;
1380;SDS011;684;48.342;10.096;2023-02-10T07:12:59;53.00;;;30.13;;
1380;SDS011;684;48.342;10.096;2023-02-10T07:15:25;44.43;;;26.80;;
1380;SDS011;684;48.342;10.096;2023-02-10T07:17:52;52.60;;;28.33;;
1380;SDS011;684;48.342;10.096;2023-02-10T07:20:20;47.23;;;26.50;;
1380;SDS011;684;48.342;10.096;2023-02-10T07:22:47;50.97;;;27.10;;
1380;SDS011;684;48.342;10.096;2023-02-10T07:25:15;50.30;;;28.90;;
1380;SDS011;684;48.342;10.096;2023-02-10T07:27:42;44.60;;;26.80;;
1380;SDS011;684;48.342;10.096;2023-02-10T07:30:09;47.13;;;26.00;;
1380;SDS011;684;48.342;10.096;2023-02-10T07:32:37;44.60;;;26.80;;
1380;SDS011;684;48.342;10.096;2023-02-10T07:35:03;50.40;;;29.07;;
1380;SDS011;684;48.342;10.096;2023-02-10T07:37:32;48.37;;;25.47;;
1380;SDS011;684;48.342;10.096;2023-02-10T07:39:59;45.13;;;26.90;;
1380;SDS011;684;48.342;10.096;2023-02-10T07:42:25;44.63;;;28.50;;
1380;SDS011;684;48.342;10.096;2023-02-10T07:44:52;42.23;;;26.40;;
1380;SDS011;684;48.342;10.096;2023-02-10T07:47:19;41.73;;;26.10;;
1380;SDS011;684;48.342;10.096;2023-02-10T07:49:45;43.97;;;27.73;;
1380;SDS011;684;48.342;10.096;2023-02-10T07:52:12;45.43;;;28.40;;
1380;SDS011;684;48.342;10.096;2023-02-10T07:54:40;42.67;;;28.40;;
1380;SDS011;684;48.342;10.096;2023-02-10T07:57:07;43.77;;;26.77;;
1380;SDS011;684;48.342;10.096;2023-02-10T07:59:34;40.37;;;25.40;;
1380;SDS011;684;48.342;10.096;2023-02-10T08:02:00;43.23;;;27.73;;
1380;SDS011;684;48.342;10.096;2023-02-10T08:04:29;38.23;;;25.67;;
1380;SDS011;684;48.342;10.096;2023-02-10T08:06:56;39.60;;;26.10;;
1380;SDS011;684;48.342;10.096;2023-02-10T08:09:23;37.53;;;25.27;;
1380;SDS011;684;48.342;10.096;2023-02-10T08:11:51;36.20;;;25.33;;
1380;SDS011;684;48.342;10.096;2023-02-10T08:14:18;43.30;;;27.63;;
1380;SDS011;684;48.342;10.096;2023-02-10T08:16:44;42.57;;;27.83;;
1380;SDS011;684;48.342;10.096;2023-02-10T08:19:11;36.30;;;25.17;;
1380;SDS011;684;48.342;10.096;2023-02-10T08:21:39;41.87;;;25.50;;
1380;SDS011;684;48.342;10.096;2023-02-10T08:24:06;37.23;;;26.07;;
1380;SDS011;684;48.342;10.096;2023-02-10T08:26:33;34.33;;;24.17;;
1380;SDS011;684;48.342;10.096;2023-02-10T08:29:01;37.90;;;24.70;;
1380;SDS011;684;48.342;10.096;2023-02-10T08:31:28;41.50;;;25.77;;
1380;SDS011;684;48.342;10.096;2023-02-10T08:33:55;38.70;;;28.60;;
1380;SDS011;684;48.342;10.096;2023-02-10T08:36:22;35.03;;;26.20;;
1380;SDS011;684;48.342;10.096;2023-02-10T08:38:49;37.73;;;26.90;;
1380;SDS011;684;48.342;10.096;2023-02-10T08:41:17;36.17;;;27.13;;
1380;SDS011;684;48.342;10.096;2023-02-10T08:43:44;40.17;;;28.10;;
1380;SDS011;684;48.342;10.096;2023-02-10T08:46:12;38.37;;;25.83;;
1380;SDS011;684;48.342;10.096;2023-02-10T08:48:39;37.93;;;26.50;;
1380;SDS011;684;48.342;10.096;2023-02-10T08:51:06;40.30;;;27.07;;
1380;SDS011;684;48.342;10.096;2023-02-10T08:53:34;42.83;;;28.73;;
1380;SDS011;684;48.342;10.096;2023-02-10T08:56:03;42.83;;;27.97;;
1380;SDS011;684;48.342;10.096;2023-02-10T08:58:31;35.70;;;26.97;;
1380;SDS011;684;48.342;10.096;2023-02-10T09:00:58;39.47;;;28.20;;
1380;SDS011;684;48.342;10.096;2023-02-10T09:03:26;37.57;;;27.37;;
1380;SDS011;684;48.342;10.096;2023-02-10T09:05:53;35.97;;;28.17;;
1380;SDS011;684;48.342;10.096;2023-02-10T09:08:20;37.30;;;28.10;;
1380;SDS011;684;48.342;10.096;2023-02-10T09:10:47;36.03;;;28.67;;
1380;SDS011;684;48.342;10.096;2023-02-10T09:13:15;35.53;;;27.03;;
1380;SDS011;684;48.342;10.096;2023-02-10T09:15:42;37.47;;;27.80;;
1380;SDS011;684;48.342;10.096;2023-02-10T09:18:09;36.00;;;29.00;;
1380;SDS011;684;48.342;10.096;2023-02-10T09:20:37;39.60;;;29.20;;
1380;SDS011;684;48.342;10.096;2023-02-10T09:23:05;36.83;;;28.10;;
1380;SDS011;684;48.342;10.096;2023-02-10T09:25:32;36.47;;;28.30;;
1380;SDS011;684;48.342;10.096;2023-02-10T09:27:59;35.80;;;28.00;;
1380;SDS011;684;48.342;10.096;2023-02-10T09:30:25;37.10;;;28.17;;
1380;SDS011;684;48.342;10.096;2023-02-10T09:32:53;38.17;;;28.77;;
1380;SDS011;684;48.342;10.096;2023-02-10T09:35:20;37.33;;;28.73;;
1380;SDS011;684;48.342;10.096;2023-02-10T09:37:48;33.53;;;28.87;;
1380;SDS011;684;48.342;10.096;2023-02-10T09:40:16;34.53;;;29.87;;
1380;SDS011;684;48.342;10.096;2023-02-10T09:42:51;35.43;;;27.70;;
1380;SDS011;684;48.342;10.096;2023-02-10T09:45:34;34.57;;;30.17;;
1380;SDS011;684;48.342;10.096;2023-02-10T09:48:08;37.60;;;30.10;;
1380;SDS011;684;48.342;10.096;2023-02-10T09:50:47;34.70;;;29.07;;
1380;SDS011;684;48.342;10.096;2023-02-10T09:53:22;33.10;;;27.30;;
1380;SDS011;684;48.342;10.096;2023-02-10T09:55:52;37.00;;;28.00;;
1380;SDS011;684;48.342;10.096;2023-02-10T09:58:24;32.40;;;27.17;;
1380;SDS011;684;48.342;10.096;2023-02-10T10:00:57;38.70;;;29.23;;
1380;SDS011;684;48.342;10.096;2023-02-10T10:03:28;35.47;;;28.20;;
1380;SDS011;684;48.342;10.096;2023-02-10T10:06:07;36.83;;;28.47;;
1380;SDS011;684;48.342;10.096;2023-02-10T10:08:44;31.77;;;27.07;;
1380;SDS011;684;48.342;10.096;2023-02-10T10:11:23;32.07;;;27.00;;
1380;SDS011;684;48.342;10.096;2023-02-10T10:13:52;33.23;;;27.63;;
1380;SDS011;684;48.342;10.096;2023-02-10T10:16:22;35.30;;;30.23;;
1380;SDS011;684;48.342;10.096;2023-02-10T10:19:03;34.47;;;28.40;;
1380;SDS011;684;48.342;10.096;2023-02-10T10:21:40;34.03;;;29.63;;
1380;SDS011;684;48.342;10.096;2023-02-10T10:24:19;35.00;;;27.63;;
1380;SDS011;684;48.342;10.096;2023-02-10T10:26:55;38.40;;;28.73;;
1380;SDS011;684;48.342;10.096;2023-02-10T10:29:32;36.13;;;28.50;;
1380;SDS011;684;48.342;10.096;2023-02-10T10:32:10;36.77;;;29.07;;
1380;SDS011;684;48.342;10.096;2023-02-10T10:34:42;37.93;;;29.10;;
1380;SDS011;684;48.342;10.096;2023-02-10T10:37:18;40.30;;;29.60;;
1380;SDS011;684;48.342;10.096;2023-02-10T10:39:49;37.60;;;28.43;;
1380;SDS011;684;48.342;10.096;2023-02-10T10:42:20;41.10;;;29.70;;
1380;SDS011;684;48.342;10.096;2023-02-10T10:44:52;35.07;;;28.13;;
1380;SDS011;684;48.342;10.096;2023-02-10T10:47:34;41.37;;;29.93;;
1380;SDS011;684;48.342;10.096;2023-02-10T10:50:10;32.73;;;26.63;;
1380;SDS011;684;48.342;10.096;2023-02-10T10:52:40;36.70;;;27.93;;
1380;SDS011;684;48.342;10.096;2023-02-10T10:55:10;36.80;;;27.87;;
1380;SDS011;684;48.342;10.096;2023-02-10T10:57:42;36.27;;;28.60;;
1380;SDS011;684;48.342;10.096;2023-02-10T11:00:13;35.63;;;25.40;;
1380;SDS011;684;48.342;10.096;2023-02-10T11:02:56;34.70;;;26.83;;
1380;SDS011;684;48.342;10.096;2023-02-10T11:05:28;28.17;;;22.70;;
1380;SDS011;684;48.342;10.096;2023-02-10T11:07:57;33.20;;;26.30;;
1380;SDS011;684;48.342;10.096;2023-02-10T11:10:27;34.53;;;25.90;;
1380;SDS011;684;48.342;10.096;2023-02-10T11:12:57;34.47;;;26.17;;
1380;SDS011;684;48.342;10.096;2023-02-10T11:15:37;35.03;;;24.90;;
1380;SDS011;684;48.342;10.096;2023-02-10T11:18:07;34.50;;;26.20;;
1380;SDS011;684;48.342;10.096;2023-02-10T11:20:50;34.10;;;24.83;;
1380;SDS011;684;48.342;10.096;2023-02-10T11:23:19;29.63;;;23.70;;
1380;SDS011;684;48.342;10.096;2023-02-10T11:25:54;31.87;;;23.87;;
1380;SDS011;684;48.342;10.096;2023-02-10T11:28:24;29.77;;;24.00;;
1380;SDS011;684;48.342;10.096;2023-02-10T11:30:54;35.47;;;25.47;;
1380;SDS011;684;48.342;10.096;2023-02-10T11:33:23;29.40;;;21.60;;
1380;SDS011;684;48.342;10.096;2023-02-10T11:35:52;32.37;;;22.80;;
1380;SDS011;684;48.342;10.096;2023-02-10T11:38:23;33.37;;;24.10;;
1380;SDS011;684;48.342;10.096;2023-02-10T11:40:54;28.47;;;23.13;;
1380;SDS011;684;48.342;10.096;2023-02-10T11:43:25;34.70;;;25.77;;
1380;SDS011;684;48.342;10.096;2023-02-10T11:45:55;30.97;;;24.37;;
1380;SDS011;684;48.342;10.096;2023-02-10T11:48:24;31.13;;;24.43;;
1380;SDS011;684;48.342;10.096;2023-02-10T11:51:03;29.97;;;23.13;;
1380;SDS011;684;48.342;10.096;2023-02-10T11:53:33;31.23;;;24.33;;
1380;SDS011;684;48.342;10.096;2023-02-10T11:56:05;30.53;;;23.73;;
1380;SDS011;684;48.342;10.096;2023-02-10T11:58:39;30.30;;;23.97;;
1380;SDS011;684;48.342;10.096;2023-02-10T12:01:24;30.37;;;23.83;;
1380;SDS011;684;48.342;10.096;2023-02-10T12:04:00;31.80;;;23.20;;
1380;SDS011;684;48.342;10.096;2023-02-10T12:06:33;29.63;;;22.87;;
1380;SDS011;684;48.342;10.096;2023-02-10T12:09:06;30.87;;;23.57;;
1380;SDS011;684;48.342;10.096;2023-02-10T12:11:45;30.67;;;22.63;;
1380;SDS011;684;48.342;10.096;2023-02-10T12:14:24;30.03;;;23.23;;
1380;SDS011;684;48.342;10.096;2023-02-10T12:17:00;30.47;;;23.37;;
1380;SDS011;684;48.342;10.096;2023-02-10T12:19:33;30.50;;;23.03;;
1380;SDS011;684;48.342;10.096;2023-02-10T12:22:09;31.83;;;23.17;;
1380;SDS011;684;48.342;10.096;2023-02-10T12:27:37;29.97;;;21.63;;
1380;SDS011;684;48.342;10.096;2023-02-10T12:30:16;29.10;;;21.33;;
1380;SDS011;684;48.342;10.096;2023-02-10T12:32:54;26.73;;;21.10;;
1380;SDS011;684;48.342;10.096;2023-02-10T12:35:32;28.23;;;19.77;;
1380;SDS011;684;48.342;10.096;2023-02-10T12:38:14;28.70;;;20.23;;
1380;SDS011;684;48.342;10.096;2023-02-10T12:40:51;25.73;;;20.43;;
1380;SDS011;684;48.342;10.096;2023-02-10T12:43:38;26.87;;;17.37;;
1380;SDS011;684;48.342;10.096;2023-02-10T12:46:22;20.80;;;16.07;;
1380;SDS011;684;48.342;10.096;2023-02-10T12:49:01;26.93;;;18.10;;
1380;SDS011;684;48.342;10.096;2023-02-10T12:51:45;23.47;;;17.87;;
1380;SDS011;684;48.342;10.096;2023-02-10T12:54:27;24.43;;;19.70;;
1380;SDS011;684;48.342;10.096;2023-02-10T12:57:00;25.20;;;17.33;;
1380;SDS011;684;48.342;10.096;2023-02-10T12:59:32;30.90;;;20.43;;
1380;SDS011;684;48.342;10.096;2023-02-10T13:02:06;30.13;;;19.10;;
1380;SDS011;684;48.342;10.096;2023-02-10T13:04:41;25.33;;;18.33;;
1380;SDS011;684;48.342;10.096;2023-02-10T13:07:14;23.37;;;16.47;;
1380;SDS011;684;48.342;10.096;2023-02-10T13:09:47;23.77;;;17.17;;
1380;SDS011;684;48.342;10.096;2023-02-10T13:12:17;26.40;;;17.70;;
1380;SDS011;684;48.342;10.096;2023-02-10T13:14:50;25.43;;;18.20;;
1380;SDS011;684;48.342;10.096;2023-02-10T13:17:20;22.07;;;16.30;;
1380;SDS011;684;48.342;10.096;2023-02-10T13:19:50;26.03;;;18.00;;
1380;SDS011;684;48.342;10.096;2023-02-10T13:22:24;25.83;;;18.37;;
1380;SDS011;684;48.342;10.096;2023-02-10T13:25:07;25.90;;;19.67;;
1380;SDS011;684;48.342;10.096;2023-02-10T13:27:41;27.70;;;18.97;;
1380;SDS011;684;48.342;10.096;2023-02-10T13:30:42;27.43;;;19.43;;
1380;SDS011;684;48.342;10.096;2023-02-10T13:33:18;25.60;;;18.83;;
1380;SDS011;684;48.342;10.096;2023-02-10T13:35:48;30.47;;;18.43;;
1380;SDS011;684;48.342;10.096;2023-02-10T13:38:16;25.17;;;17.90;;
1380;SDS011;684;48.342;10.096;2023-02-10T13:40:47;26.97;;;17.00;;
1380;SDS011;684;48.342;10.096;2023-02-10T13:43:19;27.57;;;18.53;;
1380;SDS011;684;48.342;10.096;2023-02-10T13:45:52;30.17;;;20.27;;
1380;SDS011;684;48.342;10.096;2023-02-10T13:48:21;29.17;;;21.30;;
1380;SDS011;684;48.342;10.096;2023-02-10T13:50:54;26.17;;;18.53;;
1380;SDS011;684;48.342;10.096;2023-02-10T13:53:27;29.60;;;20.40;;
1380;SDS011;684;48.342;10.096;2023-02-10T13:56:03;27.83;;;19.60;;
1380;SDS011;684;48.342;10.096;2023-02-10T13:58:46;28.30;;;19.60;;
1380;SDS011;684;48.342;10.096;2023-02-10T14:04:00;28.27;;;18.20;;
1380;SDS011;684;48.342;10.096;2023-02-10T14:06:34;30.17;;;19.57;;
1380;SDS011;684;48.342;10.096;2023-02-10T14:09:04;30.47;;;20.27;;
1380;SDS011;684;48.342;10.096;2023-02-10T14:11:38;29.10;;;18.90;;
1380;SDS011;684;48.342;10.096;2023-02-10T14:14:16;27.00;;;18.27;;
1380;SDS011;684;48.342;10.096;2023-02-10T14:16:48;31.27;;;19.40;;
1380;SDS011;684;48.342;10.096;2023-02-10T14:19:19;29.93;;;17.57;;
1380;SDS011;684;48.342;10.096;2023-02-10T14:21:48;29.23;;;18.67;;
1380;SDS011;684;48.342;10.096;2023-02-10T14:24:17;29.67;;;18.70;;
1380;SDS011;684;48.342;10.096;2023-02-10T14:26:51;26.67;;;18.00;;
1380;SDS011;684;48.342;10.096;2023-02-10T14:29:19;28.07;;;18.43;;
1380;SDS011;684;48.342;10.096;2023-02-10T14:31:50;30.03;;;18.20;;
1380;SDS011;684;48.342;10.096;2023-02-10T14:34:21;30.13;;;17.93;;
1380;SDS011;684;48.342;10.096;2023-02-10T14:36:50;30.47;;;16.27;;
1380;SDS011;684;48.342;10.096;2023-02-10T14:39:19;26.43;;;16.70;;
1380;SDS011;684;48.342;10.096;2023-02-10T14:41:47;30.10;;;17.60;;
1380;SDS011;684;48.342;10.096;2023-02-10T14:44:21;30.67;;;19.27;;
1380;SDS011;684;48.342;10.096;2023-02-10T14:46:53;28.93;;;18.33;;
1380;SDS011;684;48.342;10.096;2023-02-10T14:49:20;27.50;;;18.13;;
1380;SDS011;684;48.342;10.096;2023-02-10T14:51:48;32.73;;;18.80;;
1380;SDS011;684;48.342;10.096;2023-02-10T14:54:16;26.73;;;17.83;;
1380;SDS011;684;48.342;10.096;2023-02-10T14:56:49;30.13;;;18.23;;
1380;SDS011;684;48.342;10.096;2023-02-10T14:59:18;27.10;;;18.67;;
1380;SDS011;684;48.342;10.096;2023-02-10T15:01:46;29.23;;;18.57;;
1380;SDS011;684;48.342;10.096;2023-02-10T15:04:16;25.53;;;17.53;;
1380;SDS011;684;48.342;10.096;2023-02-10T15:06:44;31.73;;;19.17;;
1380;SDS011;684;48.342;10.096;2023-02-10T15:09:12;29.00;;;18.10;;
1380;SDS011;684;48.342;10.096;2023-02-10T15:11:43;24.70;;;16.90;;
1380;SDS011;684;48.342;10.096;2023-02-10T15:14:30;28.03;;;18.77;;